Time,TemperatureF,DewpointF,PressureIn,WindDirection,WindDirectionDegrees,WindSpeedMPH,WindSpeedGustMPH,Humidity,HourlyPrecipIn,Conditions,Clouds,dailyrainin,SolarRadiationWatts/m^2,SoftwareType,DateUTC
2013-03-20 00:03:00,60.0,59.0,-100.00,South,185,0.0,0.0,95,0.00,,,0.00,0.000000,,2013-03-20 10:03:00,
2013-03-20 00:12:00,60.0,59.0,-100.00,South,185,0.0,0.0,95,0.00,,,0.00,0.000000,,2013-03-20 10:12:00,
2013-03-20 00:22:00,60.0,59.0,-100.00,South,185,0.0,0.0,95,0.00,,,0.00,0.000000,,2013-03-20 10:22:00,
2013-03-20 00:32:00,60.0,59.0,-100.00,South,185,0.0,0.0,95,0.00,,,0.00,0.000000,,2013-03-20 10:32:00,
2013-03-20 01:02:00,61.0,59.0,-100.00,SSW,193,0.0,0.0,94,0.00,,,0.00,0.000000,,2013-03-20 11:02:00,
2013-03-20 01:12:00,61.0,59.0,-100.00,SSW,193,0.0,0.0,94,0.00,,,0.00,0.000000,,2013-03-20 11:12:00,
2013-03-20 01:22:00,61.0,59.0,-100.00,SSW,193,0.0,0.0,94,0.00,,,0.00,0.000000,,2013-03-20 11:22:00,
2013-03-20 01:32:00,61.0,59.0,-100.00,SSW,193,0.0,0.0,94,0.00,,,0.00,0.000000,,2013-03-20 11:32:00,
2013-03-20 02:02:00,60.0,58.0,-100.00,SSW,197,0.0,0.0,92,0.00,,,-99.99,0.000000,,2013-03-20 12:02:00,
2013-03-20 02:12:00,60.0,58.0,-100.00,SSW,197,0.0,0.0,92,0.00,,,-99.99,0.000000,,2013-03-20 12:12:00,
2013-03-20 02:22:00,60.0,58.0,-100.00,SSW,197,0.0,0.0,92,0.00,,,-99.99,0.000000,,2013-03-20 12:22:00,
2013-03-20 02:32:00,60.0,58.0,-100.00,SSW,197,0.0,0.0,92,0.00,,,-99.99,0.000000,,2013-03-20 12:32:00,
2013-03-20 03:03:00,60.0,58.0,-100.00,SW,219,0.0,0.0,92,0.00,,,0.00,0.000000,,2013-03-20 13:03:00,
2013-03-20 03:12:00,60.0,58.0,-100.00,SW,219,0.0,0.0,92,0.00,,,0.00,0.000000,,2013-03-20 13:12:00,
2013-03-20 03:22:00,60.0,58.0,-100.00,SW,219,0.0,0.0,92,0.00,,,0.00,0.000000,,2013-03-20 13:22:00,
2013-03-20 03:32:00,60.0,58.0,-100.00,SW,219,0.0,0.0,92,0.00,,,0.00,0.000000,,2013-03-20 13:32:00,
2013-03-20 04:02:00,60.0,59.0,-100.00,SSW,194,0.0,0.0,95,0.00,,,0.00,0.000000,,2013-03-20 14:02:00,
2013-03-20 04:12:00,60.0,59.0,-100.00,SSW,194,0.0,0.0,95,0.00,,,0.00,0.000000,,2013-03-20 14:12:00,
2013-03-20 04:22:00,60.0,59.0,-100.00,SSW,194,0.0,0.0,95,0.00,,,0.00,0.000000,,2013-03-20 14:22:00,
2013-03-20 04:32:00,60.0,59.0,-100.00,SSW,194,0.0,0.0,95,0.00,,,0.00,0.000000,,2013-03-20 14:32:00,
2013-03-20 05:02:00,60.0,58.0,-100.00,South,183,0.0,0.0,93,0.00,,,0.00,0.000000,,2013-03-20 15:02:00,
2013-03-20 05:12:00,60.0,58.0,-100.00,South,183,0.0,0.0,93,0.00,,,0.00,0.000000,,2013-03-20 15:12:00,
2013-03-20 05:22:00,60.0,58.0,-100.00,South,183,0.0,0.0,93,0.00,,,0.00,0.000000,,2013-03-20 15:22:00,
2013-03-20 05:33:00,60.0,58.0,-100.00,South,183,0.0,0.0,93,0.00,,,0.00,0.000000,,2013-03-20 15:33:00,
2013-03-20 06:03:00,60.0,56.0,-100.00,South,188,0.0,0.0,87,0.00,,,0.00,0.000000,,2013-03-20 16:03:00,
2013-03-20 06:12:00,60.0,56.0,-100.00,South,188,0.0,0.0,87,0.00,,,0.00,0.000000,,2013-03-20 16:12:00,
2013-03-20 06:23:00,60.0,56.0,-100.00,South,188,0.0,0.0,87,0.00,,,0.00,0.000000,,2013-03-20 16:23:00,
2013-03-20 06:32:00,60.0,56.0,-100.00,South,188,0.0,0.0,87,0.00,,,0.00,0.000000,,2013-03-20 16:32:00,
2013-03-20 07:03:00,61.0,54.0,-100.00,SSW,207,0.0,0.0,77,0.00,,,0.00,0.000000,,2013-03-20 17:03:00,
2013-03-20 07:12:00,61.0,54.0,-100.00,SSW,207,0.0,0.0,77,0.00,,,0.00,0.000000,,2013-03-20 17:12:00,
2013-03-20 07:22:00,61.0,54.0,-100.00,SSW,207,0.0,0.0,77,0.00,,,0.00,0.000000,,2013-03-20 17:22:00,
2013-03-20 07:32:00,61.0,54.0,-100.00,SSW,207,0.0,0.0,77,0.00,,,0.00,0.000000,,2013-03-20 17:32:00,
2013-03-20 08:02:00,61.0,54.0,-100.00,SW,227,0.0,0.0,77,0.00,,,0.00,0.000000,,2013-03-20 18:02:00,
2013-03-20 08:12:00,61.0,54.0,-100.00,SW,227,0.0,0.0,77,0.00,,,0.00,0.000000,,2013-03-20 18:12:00,
2013-03-20 08:22:00,61.0,54.0,-100.00,SW,227,0.0,0.0,77,0.00,,,0.00,0.000000,,2013-03-20 18:22:00,
2013-03-20 08:32:00,61.0,54.0,-100.00,SW,227,0.0,0.0,77,0.00,,,0.00,0.000000,,2013-03-20 18:32:00,
2013-03-20 09:02:00,64.0,58.0,-100.00,South,191,0.0,0.0,82,0.00,,,-99.99,0.000000,,2013-03-20 19:02:00,
2013-03-20 09:12:00,64.0,58.0,-100.00,South,191,0.0,0.0,82,0.00,,,-99.99,0.000000,,2013-03-20 19:12:00,
2013-03-20 09:22:00,64.0,58.0,-100.00,South,191,0.0,0.0,82,0.00,,,-99.99,0.000000,,2013-03-20 19:22:00,
2013-03-20 09:32:00,64.0,58.0,-100.00,South,191,0.0,0.0,82,0.00,,,-99.99,0.000000,,2013-03-20 19:32:00,
2013-03-20 10:02:00,67.0,60.0,-100.00,SSW,199,0.0,0.0,79,0.00,,,0.00,0.000000,,2013-03-20 20:02:00,
2013-03-20 10:12:00,67.0,60.0,-100.00,SSW,199,0.0,0.0,79,0.00,,,0.00,0.000000,,2013-03-20 20:12:00,
2013-03-20 10:22:00,67.0,60.0,-100.00,SSW,199,0.0,0.0,79,0.00,,,0.00,0.000000,,2013-03-20 20:22:00,
2013-03-20 10:32:00,67.0,60.0,-100.00,SSW,199,0.0,0.0,79,0.00,,,0.00,0.000000,,2013-03-20 20:32:00,
2013-03-20 11:02:00,69.0,57.0,-100.00,WSW,250,0.0,0.0,66,0.00,,,0.00,0.000000,,2013-03-20 21:02:00,
2013-03-20 11:12:00,69.0,57.0,-100.00,WSW,250,0.0,0.0,66,0.00,,,0.00,0.000000,,2013-03-20 21:12:00,
2013-03-20 11:22:00,69.0,57.0,-100.00,WSW,250,0.0,0.0,66,0.00,,,0.00,0.000000,,2013-03-20 21:22:00,
2013-03-20 11:33:00,69.0,57.0,-100.00,WSW,250,0.0,0.0,66,0.00,,,0.00,0.000000,,2013-03-20 21:33:00,
2013-03-20 12:03:00,71.0,55.0,-100.00,WSW,245,0.0,0.0,58,0.00,,,0.00,0.000000,,2013-03-20 22:03:00,
2013-03-20 12:12:00,71.0,55.0,-100.00,WSW,245,0.0,0.0,58,0.00,,,0.00,0.000000,,2013-03-20 22:12:00,
2013-03-20 12:23:00,71.0,55.0,-100.00,WSW,245,0.0,0.0,58,0.00,,,0.00,0.000000,,2013-03-20 22:23:00,
2013-03-20 12:32:00,71.0,55.0,-100.00,WSW,245,0.0,0.0,58,0.00,,,0.00,0.000000,,2013-03-20 22:32:00,
2013-03-20 13:02:00,75.0,57.0,-100.00,SSW,198,0.0,0.0,54,0.00,,,0.00,0.000000,,2013-03-20 23:02:00,
2013-03-20 13:12:00,75.0,57.0,-100.00,SSW,198,0.0,0.0,54,0.00,,,0.00,0.000000,,2013-03-20 23:12:00,
2013-03-20 13:22:00,75.0,57.0,-100.00,SSW,198,0.0,0.0,54,0.00,,,0.00,0.000000,,2013-03-20 23:22:00,
2013-03-20 13:32:00,75.0,57.0,-100.00,SSW,198,0.0,0.0,54,0.00,,,0.00,0.000000,,2013-03-20 23:32:00,
2013-03-20 14:02:00,73.0,55.0,-100.00,SSW,208,0.0,0.0,54,0.00,,,0.00,0.000000,,2013-03-21 00:02:00,
2013-03-20 14:12:00,73.0,55.0,-100.00,SSW,208,0.0,0.0,54,0.00,,,0.00,0.000000,,2013-03-21 00:12:00,
2013-03-20 14:22:00,73.0,55.0,-100.00,SSW,208,0.0,0.0,54,0.00,,,0.00,0.000000,,2013-03-21 00:22:00,
2013-03-20 14:32:00,73.0,55.0,-100.00,SSW,208,0.0,0.0,54,0.00,,,0.00,0.000000,,2013-03-21 00:32:00,
2013-03-20 15:02:00,72.0,57.0,-100.00,WSW,248,0.0,0.0,59,0.00,,,0.00,0.000000,,2013-03-21 01:02:00,
2013-03-20 15:12:00,72.0,57.0,-100.00,WSW,248,0.0,0.0,59,0.00,,,0.00,0.000000,,2013-03-21 01:12:00,
2013-03-20 15:22:00,72.0,57.0,-100.00,WSW,248,0.0,0.0,59,0.00,,,0.00,0.000000,,2013-03-21 01:22:00,
2013-03-20 15:32:00,72.0,57.0,-100.00,WSW,248,0.0,0.0,59,0.00,,,0.00,0.000000,,2013-03-21 01:32:00,
2013-03-20 16:02:00,72.0,53.0,-100.00,WSW,248,0.0,0.0,52,0.00,,,0.00,0.000000,,2013-03-21 02:02:00,
2013-03-20 16:12:00,72.0,53.0,-100.00,WSW,248,0.0,0.0,52,0.00,,,0.00,0.000000,,2013-03-21 02:12:00,
2013-03-20 16:22:00,72.0,53.0,-100.00,WSW,248,0.0,0.0,52,0.00,,,0.00,0.000000,,2013-03-21 02:22:00,
2013-03-20 16:32:00,72.0,53.0,-100.00,WSW,248,0.0,0.0,52,0.00,,,0.00,0.000000,,2013-03-21 02:32:00,
2013-03-20 17:02:00,72.0,57.0,-100.00,West,272,0.0,0.0,60,0.00,,,0.00,0.000000,,2013-03-21 03:02:00,
2013-03-20 17:12:00,72.0,57.0,-100.00,West,272,0.0,0.0,60,0.00,,,0.00,0.000000,,2013-03-21 03:12:00,
2013-03-20 17:22:00,72.0,57.0,-100.00,West,272,0.0,0.0,60,0.00,,,0.00,0.000000,,2013-03-21 03:22:00,
2013-03-20 17:32:00,72.0,57.0,-100.00,West,272,0.0,0.0,60,0.00,,,0.00,0.000000,,2013-03-21 03:32:00,
2013-03-20 18:02:00,71.0,54.0,-100.00,West,263,0.0,0.0,54,0.00,,,0.00,0.000000,,2013-03-21 04:02:00,
2013-03-20 18:12:00,71.0,54.0,-100.00,West,263,0.0,0.0,54,0.00,,,0.00,0.000000,,2013-03-21 04:12:00,
2013-03-20 18:22:00,71.0,54.0,-100.00,West,263,0.0,0.0,54,0.00,,,0.00,0.000000,,2013-03-21 04:22:00,
2013-03-20 18:32:00,71.0,54.0,-100.00,West,263,0.0,0.0,54,0.00,,,0.00,0.000000,,2013-03-21 04:32:00,
2013-03-20 19:02:00,66.0,56.0,-100.00,SSW,206,0.0,0.0,70,0.00,,,0.00,0.000000,,2013-03-21 05:02:00,
2013-03-20 19:12:00,66.0,56.0,-100.00,SSW,206,0.0,0.0,70,0.00,,,0.00,0.000000,,2013-03-21 05:12:00,
2013-03-20 19:22:00,66.0,56.0,-100.00,SSW,206,0.0,0.0,70,0.00,,,0.00,0.000000,,2013-03-21 05:22:00,
2013-03-20 19:32:00,66.0,56.0,-100.00,SSW,206,0.0,0.0,70,0.00,,,0.00,0.000000,,2013-03-21 05:32:00,
2013-03-20 20:02:00,63.0,58.0,-100.00,South,172,0.0,0.0,85,0.00,,,0.00,0.000000,,2013-03-21 06:02:00,
2013-03-20 20:12:00,63.0,58.0,-100.00,South,172,0.0,0.0,85,0.00,,,0.00,0.000000,,2013-03-21 06:12:00,
2013-03-20 20:22:00,63.0,58.0,-100.00,South,172,0.0,0.0,85,0.00,,,0.00,0.000000,,2013-03-21 06:22:00,
2013-03-20 20:32:00,63.0,58.0,-100.00,South,172,0.0,0.0,85,0.00,,,0.00,0.000000,,2013-03-21 06:32:00,
2013-03-20 21:02:00,63.0,59.0,-100.00,South,182,0.0,0.0,88,0.00,,,0.00,0.000000,,2013-03-21 07:02:00,
2013-03-20 21:12:00,63.0,59.0,-100.00,South,182,0.0,0.0,88,0.00,,,0.00,0.000000,,2013-03-21 07:12:00,
2013-03-20 21:22:00,63.0,59.0,-100.00,South,182,0.0,0.0,88,0.00,,,0.00,0.000000,,2013-03-21 07:22:00,
2013-03-20 21:32:00,63.0,59.0,-100.00,South,182,0.0,0.0,88,0.00,,,0.00,0.000000,,2013-03-21 07:32:00,
2013-03-20 22:02:00,63.0,61.0,-100.00,WSW,250,0.0,0.0,94,0.00,,,0.00,0.000000,,2013-03-21 08:02:00,
2013-03-20 22:12:00,63.0,61.0,-100.00,WSW,250,0.0,0.0,94,0.00,,,0.00,0.000000,,2013-03-21 08:12:00,
2013-03-20 22:22:00,63.0,61.0,-100.00,WSW,250,0.0,0.0,94,0.00,,,0.00,0.000000,,2013-03-21 08:22:00,
2013-03-20 22:32:00,63.0,61.0,-100.00,WSW,250,0.0,0.0,94,0.00,,,0.00,0.000000,,2013-03-21 08:32:00,
2013-03-20 23:02:00,61.0,60.0,-100.00,WSW,250,0.0,0.0,96,0.00,,,0.00,0.000000,,2013-03-21 09:02:00,
2013-03-20 23:11:00,61.0,60.0,-100.00,WSW,250,0.0,0.0,96,0.00,,,0.00,0.000000,,2013-03-21 09:11:00,
2013-03-20 23:21:00,61.0,60.0,-100.00,WSW,250,0.0,0.0,96,0.00,,,0.00,0.000000,,2013-03-21 09:21:00,
2013-03-20 23:33:00,61.0,60.0,-100.00,WSW,250,0.0,0.0,96,0.00,,,0.00,0.000000,,2013-03-21 09:33:00,